createdAt,value
2018-03-25T00:01:50.664Z,45.20
2018-03-25T00:04:19.167Z,54.05
2018-03-25T00:06:47.923Z,43.50
2018-03-25T00:09:16.347Z,46.70
2018-03-25T00:11:44.790Z,41.50
2018-03-25T00:14:13.195Z,47.50
2018-03-25T00:16:41.647Z,38.40
2018-03-25T00:19:10.017Z,47.03
2018-03-25T00:21:38.409Z,47.05
2018-03-25T00:24:06.932Z,39.00
2018-03-25T00:26:35.347Z,44.42
2018-03-25T00:29:03.763Z,44.38
2018-03-25T00:31:32.145Z,51.75
2018-03-25T00:34:00.587Z,43.83
2018-03-25T00:36:28.979Z,42.33
2018-03-25T00:38:57.475Z,47.08
2018-03-25T00:41:25.853Z,51.58
2018-03-25T00:43:54.250Z,45.35
2018-03-25T00:46:22.660Z,50.83
2018-03-25T00:48:51.149Z,45.00
2018-03-25T00:51:19.534Z,47.33
2018-03-25T00:53:47.933Z,48.30
2018-03-25T00:56:16.327Z,48.55
2018-03-25T00:58:44.760Z,51.15
2018-03-25T01:01:13.222Z,44.65
2018-03-25T01:03:41.633Z,50.30
2018-03-25T01:06:10.280Z,50.10
2018-03-25T01:08:38.872Z,42.10
2018-03-25T01:11:07.412Z,51.00
2018-03-25T01:13:35.871Z,48.67
2018-03-25T01:16:10.986Z,53.72
2018-03-25T01:18:39.449Z,43.85
2018-03-25T01:21:07.900Z,50.97
2018-03-25T01:23:36.357Z,45.35
2018-03-25T01:26:04.777Z,47.80
2018-03-25T01:28:33.199Z,59.42
2018-03-25T01:31:01.593Z,50.45
2018-03-25T01:33:29.983Z,53.10
2018-03-25T01:35:58.461Z,61.03
2018-03-25T01:38:26.864Z,66.10
2018-03-25T01:40:55.256Z,65.35
2018-03-25T01:43:23.779Z,72.70
2018-03-25T01:45:52.174Z,64.93
2018-03-25T01:48:20.666Z,58.35
2018-03-25T01:50:49.038Z,60.45
2018-03-25T01:53:17.443Z,58.58
2018-03-25T01:55:45.816Z,65.30
2018-03-25T01:58:14.241Z,56.25
2018-03-25T02:00:42.672Z,56.42
2018-03-25T02:03:11.072Z,65.78
2018-03-25T02:05:39.453Z,59.72
2018-03-25T02:08:07.822Z,62.13
2018-03-25T02:10:36.244Z,59.95
2018-03-25T02:13:04.810Z,63.38
2018-03-25T02:15:33.203Z,52.97
2018-03-25T02:18:01.587Z,54.08
2018-03-25T02:20:29.984Z,62.65
2018-03-25T02:22:58.361Z,50.83
2018-03-25T02:25:26.884Z,57.95
2018-03-25T02:27:55.309Z,51.83
2018-03-25T02:30:23.674Z,53.83
2018-03-25T02:32:52.201Z,61.25
2018-03-25T02:35:20.609Z,58.55
2018-03-25T02:37:49.062Z,61.90
2018-03-25T02:40:17.477Z,75.53
2018-03-25T02:42:45.875Z,64.12
2018-03-25T02:45:14.286Z,73.03
2018-03-25T02:47:42.693Z,59.75
2018-03-25T02:50:11.139Z,58.63
2018-03-25T02:52:39.525Z,62.17
2018-03-25T02:55:08.082Z,59.60
2018-03-25T02:57:36.468Z,53.45
2018-03-25T03:02:45.426Z,56.88
2018-03-25T03:05:13.786Z,70.05
2018-03-25T03:07:42.240Z,51.50
2018-03-25T03:10:10.643Z,49.58
2018-03-25T03:12:39.021Z,45.60
2018-03-25T03:15:07.399Z,55.08
2018-03-25T03:17:35.785Z,56.83
2018-03-25T03:20:04.315Z,54.63
2018-03-25T03:22:32.693Z,63.38
2018-03-25T03:25:01.109Z,50.12
2018-03-25T03:27:29.486Z,57.97
2018-03-25T03:29:57.937Z,51.70
2018-03-25T03:32:26.345Z,54.30
2018-03-25T03:34:54.727Z,47.53
2018-03-25T03:37:23.121Z,60.17
2018-03-25T03:39:51.492Z,48.90
2018-03-25T03:42:19.917Z,51.45
2018-03-25T03:44:48.388Z,52.45
2018-03-25T03:47:16.804Z,46.58
2018-03-25T03:49:45.222Z,54.63
2018-03-25T03:52:13.663Z,47.97
2018-03-25T03:54:42.372Z,55.35
2018-03-25T03:57:10.747Z,53.75
2018-03-25T03:59:39.113Z,46.92
2018-03-25T04:02:07.517Z,47.33
2018-03-25T04:04:35.937Z,47.67
2018-03-25T04:07:04.392Z,55.40
2018-03-25T04:09:32.832Z,51.80
2018-03-25T04:12:01.323Z,43.87
2018-03-25T04:14:29.731Z,46.70
2018-03-25T04:16:58.114Z,45.53
2018-03-25T04:19:26.534Z,45.72
2018-03-25T04:21:54.924Z,49.85
2018-03-25T04:24:23.355Z,42.30
2018-03-25T04:26:51.771Z,43.60
2018-03-25T04:29:20.167Z,49.40
2018-03-25T04:31:48.572Z,41.40
2018-03-25T04:34:19.895Z,43.55
2018-03-25T04:36:48.308Z,45.95
2018-03-25T04:39:16.711Z,51.35
2018-03-25T04:41:45.277Z,42.47
2018-03-25T04:44:13.677Z,47.70
2018-03-25T04:46:42.100Z,49.60
2018-03-25T04:49:10.508Z,41.40
2018-03-25T04:51:38.918Z,41.63
2018-03-25T04:54:07.462Z,44.17
2018-03-25T04:56:35.908Z,41.58
2018-03-25T04:59:04.308Z,40.95
2018-03-25T05:01:32.729Z,46.78
2018-03-25T05:04:01.155Z,50.15
2018-03-25T05:06:29.528Z,45.47
2018-03-25T05:08:58.026Z,47.05
2018-03-25T05:11:26.460Z,39.17
2018-03-25T05:13:55.017Z,47.20
2018-03-25T05:16:23.382Z,50.05
2018-03-25T05:18:51.861Z,41.40
2018-03-25T05:21:20.231Z,41.75
2018-03-25T05:23:48.605Z,45.45
2018-03-25T05:26:17.017Z,52.35
2018-03-25T05:28:45.397Z,50.28
2018-03-25T05:31:13.799Z,41.70
2018-03-25T05:33:42.275Z,43.63
2018-03-25T05:36:10.653Z,41.67
2018-03-25T05:38:39.032Z,44.45
2018-03-25T05:41:07.419Z,39.45
2018-03-25T05:43:35.838Z,43.13
2018-03-25T05:46:04.275Z,42.38
2018-03-25T05:48:32.702Z,35.58
2018-03-25T05:51:01.185Z,40.33
2018-03-25T05:53:29.572Z,40.15
2018-03-25T05:55:58.019Z,36.38
2018-03-25T05:58:26.530Z,38.25
2018-03-25T06:00:54.934Z,47.67
2018-03-25T06:03:23.484Z,37.50
2018-03-25T06:05:51.978Z,39.92
2018-03-25T06:08:20.472Z,46.63
2018-03-25T06:10:48.904Z,40.22
2018-03-25T06:13:17.833Z,43.03
2018-03-25T06:15:47.185Z,42.70
2018-03-25T06:18:15.604Z,34.20
2018-03-25T06:20:44.025Z,38.20
2018-03-25T06:23:12.433Z,43.33
2018-03-25T06:25:40.841Z,36.95
2018-03-25T06:28:09.345Z,39.08
2018-03-25T06:30:37.763Z,35.47
2018-03-25T06:33:06.173Z,34.03
2018-03-25T06:35:34.563Z,34.67
2018-03-25T06:38:03.003Z,35.13
2018-03-25T06:40:31.451Z,28.15
2018-03-25T06:42:59.961Z,29.90
2018-03-25T06:45:28.399Z,25.17
2018-03-25T06:47:56.842Z,28.90
2018-03-25T06:50:25.265Z,26.37
2018-03-25T06:52:53.727Z,23.07
2018-03-25T06:55:22.156Z,27.77
2018-03-25T06:57:50.557Z,22.03
2018-03-25T07:00:19.024Z,30.17
2018-03-25T07:02:47.429Z,21.10
2018-03-25T07:05:15.879Z,16.53
2018-03-25T07:07:44.299Z,18.73
2018-03-25T07:10:12.718Z,19.80
2018-03-25T07:12:41.263Z,18.20
2018-03-25T07:15:09.666Z,22.43
2018-03-25T07:17:38.146Z,19.43
2018-03-25T07:20:06.676Z,16.10
2018-03-25T07:22:35.112Z,19.03
2018-03-25T07:25:03.640Z,19.40
2018-03-25T07:27:32.105Z,20.13
2018-03-25T07:30:00.636Z,20.20
2018-03-25T07:32:29.124Z,18.17
2018-03-25T07:34:57.599Z,18.03
2018-03-25T07:37:25.965Z,20.87
2018-03-25T07:39:54.392Z,21.30
2018-03-25T07:42:23.129Z,18.93
2018-03-25T07:44:51.668Z,19.90
2018-03-25T07:47:20.049Z,16.40
2018-03-25T07:49:48.519Z,19.63
2018-03-25T07:52:16.958Z,18.63
2018-03-25T07:54:45.434Z,22.03
2018-03-25T07:57:13.850Z,18.70
2018-03-25T07:59:42.241Z,18.37
2018-03-25T08:02:10.614Z,15.90
2018-03-25T08:04:38.993Z,23.70
2018-03-25T08:07:07.435Z,19.30
2018-03-25T08:09:35.877Z,20.67
2018-03-25T08:12:04.311Z,20.80
2018-03-25T08:14:32.716Z,16.93
2018-03-25T08:17:01.152Z,23.77
2018-03-25T08:19:29.665Z,17.77
2018-03-25T08:21:58.157Z,20.67
2018-03-25T08:24:26.585Z,19.33
2018-03-25T08:26:55.019Z,22.93
2018-03-25T08:29:23.442Z,19.83
2018-03-25T08:31:52.144Z,25.87
2018-03-25T08:34:20.557Z,30.30
2018-03-25T08:36:48.970Z,22.97
2018-03-25T08:39:17.390Z,20.90
2018-03-25T08:41:45.870Z,20.10
2018-03-25T08:44:14.317Z,22.87
2018-03-25T08:46:42.737Z,18.37
2018-03-25T08:49:11.191Z,18.90
2018-03-25T08:51:39.646Z,18.73
2018-03-25T08:54:08.130Z,20.27
2018-03-25T08:56:36.563Z,20.43
2018-03-25T08:59:05.058Z,23.80
2018-03-25T09:01:33.584Z,20.00
2018-03-25T09:04:02.025Z,20.40
2018-03-25T09:06:30.430Z,18.57
2018-03-25T09:08:58.846Z,19.17
2018-03-25T09:11:27.271Z,19.67
2018-03-25T09:13:55.731Z,20.87
2018-03-25T09:16:24.132Z,22.90
2018-03-25T09:18:52.542Z,19.57
2018-03-25T09:21:21.087Z,19.57
2018-03-25T09:23:49.485Z,21.17
2018-03-25T09:26:18.020Z,18.10
2018-03-25T09:28:46.437Z,18.80
2018-03-25T09:31:14.927Z,20.87
2018-03-25T09:33:43.394Z,21.10
2018-03-25T09:36:11.812Z,18.80
2018-03-25T09:38:40.244Z,20.17
2018-03-25T09:41:08.702Z,19.77
2018-03-25T09:43:37.105Z,19.33
2018-03-25T09:46:05.535Z,19.30
2018-03-25T09:48:34.174Z,27.67
2018-03-25T09:51:02.621Z,25.47
2018-03-25T09:53:31.047Z,21.47
2018-03-25T09:55:59.535Z,19.03
2018-03-25T09:58:28.098Z,24.27
2018-03-25T10:01:02.213Z,20.33
2018-03-25T10:03:32.543Z,20.70
2018-03-25T10:06:01.725Z,22.70
2018-03-25T10:08:30.193Z,22.13
2018-03-25T10:10:58.592Z,27.57
2018-03-25T10:13:27.002Z,21.27
2018-03-25T10:15:55.604Z,22.03
2018-03-25T10:18:24.176Z,22.10
2018-03-25T10:20:52.760Z,18.77
2018-03-25T10:23:21.377Z,17.90
2018-03-25T10:25:50.059Z,19.13
2018-03-25T10:28:18.494Z,19.83
2018-03-25T10:30:47.012Z,19.80
2018-03-25T10:33:15.408Z,20.60
2018-03-25T10:35:44.015Z,22.47
2018-03-25T10:38:12.539Z,21.00
2018-03-25T10:40:41.022Z,17.60
2018-03-25T10:43:09.467Z,20.33
2018-03-25T10:45:37.885Z,19.77
2018-03-25T10:48:06.349Z,21.20
2018-03-25T10:50:34.780Z,20.43
2018-03-25T10:53:03.268Z,22.43
2018-03-25T10:55:31.695Z,19.70
2018-03-25T10:58:00.150Z,22.40
2018-03-25T11:00:28.671Z,24.13
2018-03-25T11:02:57.045Z,21.73
2018-03-25T11:05:25.444Z,20.67
2018-03-25T11:07:53.851Z,37.40
2018-03-25T11:10:22.265Z,23.53
2018-03-25T11:12:50.735Z,23.20
2018-03-25T11:15:19.252Z,21.37
2018-03-25T11:17:47.647Z,21.40
2018-03-25T11:20:16.055Z,26.37
2018-03-25T11:22:44.653Z,21.73
2018-03-25T11:25:13.250Z,22.63
2018-03-25T11:27:41.697Z,23.90
2018-03-25T11:30:10.149Z,20.43
2018-03-25T11:32:38.620Z,30.33
2018-03-25T11:35:07.060Z,22.77
2018-03-25T11:37:35.514Z,19.23
2018-03-25T11:40:04.046Z,21.90
2018-03-25T11:42:32.543Z,21.53
2018-03-25T11:45:00.953Z,21.83
2018-03-25T11:47:29.563Z,22.03
2018-03-25T11:49:58.034Z,23.30
2018-03-25T11:52:26.811Z,24.20
2018-03-25T11:54:55.625Z,19.70
2018-03-25T11:57:24.026Z,23.40
2018-03-25T11:59:52.457Z,24.80
2018-03-25T12:02:20.855Z,22.90
2018-03-25T12:04:49.248Z,21.37
2018-03-25T12:07:17.720Z,22.37
2018-03-25T12:09:46.227Z,22.77
2018-03-25T12:12:14.603Z,22.57
2018-03-25T12:14:42.994Z,23.53
2018-03-25T12:17:11.425Z,22.47
2018-03-25T12:19:39.807Z,22.93
2018-03-25T12:22:08.253Z,24.13
2018-03-25T12:24:36.674Z,20.80
2018-03-25T12:27:05.083Z,19.13
2018-03-25T12:29:33.447Z,29.13
2018-03-25T12:32:02.485Z,23.90
2018-03-25T12:34:30.926Z,22.13
2018-03-25T12:36:59.378Z,21.03
2018-03-25T12:39:28.936Z,22.43
2018-03-25T12:41:57.502Z,21.27
2018-03-25T12:44:25.947Z,25.93
2018-03-25T12:46:54.506Z,30.70
2018-03-25T12:49:22.938Z,25.93
2018-03-25T12:51:51.446Z,26.23
2018-03-25T12:54:20.187Z,24.67
2018-03-25T12:56:48.717Z,25.97
2018-03-25T12:59:17.788Z,24.20
2018-03-25T13:01:46.226Z,25.47
2018-03-25T13:04:14.764Z,25.10
2018-03-25T13:06:43.196Z,23.50
2018-03-25T13:09:11.612Z,25.67
2018-03-25T13:11:40.034Z,25.33
2018-03-25T13:14:08.451Z,24.90
2018-03-25T13:16:36.863Z,29.50
2018-03-25T13:19:06.278Z,24.47
2018-03-25T13:21:34.681Z,25.67
2018-03-25T13:24:03.183Z,24.57
2018-03-25T13:26:31.618Z,22.10
2018-03-25T13:29:00.034Z,23.90
2018-03-25T13:31:28.488Z,25.90
2018-03-25T13:33:56.908Z,23.60
2018-03-25T13:36:25.319Z,25.60
2018-03-25T13:38:53.717Z,26.47
2018-03-25T13:41:22.718Z,26.60
2018-03-25T13:43:52.107Z,31.53
2018-03-25T13:46:20.556Z,25.33
2018-03-25T13:48:49.021Z,30.23
2018-03-25T13:51:17.476Z,27.27
2018-03-25T13:53:45.967Z,27.93
2018-03-25T13:56:14.376Z,38.03
2018-03-25T13:58:42.818Z,28.83
2018-03-25T14:01:11.313Z,37.73
2018-03-25T14:03:39.765Z,32.00
2018-03-25T14:06:08.192Z,33.77
2018-03-25T14:08:36.689Z,35.40
2018-03-25T14:11:05.141Z,33.03
2018-03-25T14:13:33.748Z,31.90
2018-03-25T14:16:02.169Z,35.67
2018-03-25T14:18:30.834Z,35.30
2018-03-25T14:20:59.260Z,32.97
2018-03-25T14:23:27.665Z,32.83
2018-03-25T14:25:56.075Z,32.13
2018-03-25T14:28:24.507Z,34.40
2018-03-25T14:30:52.971Z,31.80
2018-03-25T14:33:21.336Z,33.77
2018-03-25T14:35:49.795Z,32.77
2018-03-25T14:38:18.185Z,34.50
2018-03-25T14:40:46.728Z,28.50
2018-03-25T14:43:15.223Z,34.87
2018-03-25T14:45:43.651Z,33.80
2018-03-25T14:48:12.114Z,31.83
2018-03-25T14:50:40.567Z,36.17
2018-03-25T14:53:08.981Z,35.17
2018-03-25T14:55:37.389Z,35.60
2018-03-25T14:58:05.800Z,31.80
2018-03-25T15:00:34.283Z,36.43
2018-03-25T15:03:02.743Z,35.07
2018-03-25T15:05:33.571Z,38.60
2018-03-25T15:08:02.588Z,40.13
2018-03-25T15:10:31.003Z,38.13
2018-03-25T15:12:59.627Z,42.90
2018-03-25T15:15:28.061Z,38.27
2018-03-25T15:17:57.632Z,39.83
2018-03-25T15:20:27.602Z,38.57
2018-03-25T15:22:56.027Z,39.67
2018-03-25T15:25:24.495Z,40.10
2018-03-25T15:27:52.952Z,41.10
2018-03-25T15:30:21.397Z,46.20
2018-03-25T15:32:50.579Z,45.03
2018-03-25T15:35:20.486Z,40.20
2018-03-25T15:37:50.035Z,41.70
2018-03-25T15:40:18.502Z,41.03
2018-03-25T15:42:46.919Z,41.50
2018-03-25T15:45:16.102Z,43.37
2018-03-25T15:47:44.515Z,37.63
2018-03-25T15:50:13.059Z,43.60
2018-03-25T15:52:41.588Z,40.63
2018-03-25T15:55:10.167Z,40.37
2018-03-25T15:57:38.603Z,40.73
2018-03-25T16:00:07.845Z,43.57
2018-03-25T16:02:36.312Z,43.73
2018-03-25T16:05:04.730Z,43.40
2018-03-25T16:07:33.197Z,43.60
2018-03-25T16:10:01.736Z,41.27
2018-03-25T16:12:30.248Z,43.93
2018-03-25T16:14:58.856Z,44.63
2018-03-25T16:17:27.361Z,42.20
2018-03-25T16:19:55.907Z,47.27
2018-03-25T16:22:24.687Z,43.30
2018-03-25T16:24:53.157Z,42.30
2018-03-25T16:27:21.548Z,47.70
2018-03-25T16:29:50.996Z,61.40
2018-03-25T16:32:19.465Z,55.33
2018-03-25T16:34:47.885Z,44.80
2018-03-25T16:37:16.300Z,57.60
2018-03-25T16:39:44.849Z,45.33
2018-03-25T16:42:13.296Z,51.33
2018-03-25T16:44:41.822Z,54.53
2018-03-25T16:47:10.381Z,45.47
2018-03-25T16:49:38.832Z,47.30
2018-03-25T16:52:07.257Z,50.70
2018-03-25T16:54:35.707Z,49.33
2018-03-25T16:57:04.269Z,55.20
2018-03-25T16:59:32.777Z,50.30
2018-03-25T17:02:01.225Z,45.93
2018-03-25T17:04:29.716Z,48.17
2018-03-25T17:06:58.151Z,50.00
2018-03-25T17:09:26.565Z,47.07
2018-03-25T17:11:54.978Z,52.73
2018-03-25T17:14:23.433Z,52.00
2018-03-25T17:16:51.924Z,52.63
2018-03-25T17:19:20.403Z,50.67
2018-03-25T17:21:48.807Z,49.80
2018-03-25T17:24:17.334Z,46.67
2018-03-25T17:26:45.788Z,49.90
2018-03-25T17:29:14.335Z,47.47
2018-03-25T17:31:42.800Z,53.63
2018-03-25T17:34:11.255Z,47.93
2018-03-25T17:36:39.689Z,53.10
2018-03-25T17:39:08.117Z,50.57
2018-03-25T17:41:36.888Z,49.80
2018-03-25T17:44:05.395Z,52.87
2018-03-25T17:46:33.806Z,51.93
2018-03-25T17:49:02.221Z,51.30
2018-03-25T17:51:30.611Z,55.67
2018-03-25T17:53:59.029Z,59.50
2018-03-25T17:56:27.533Z,47.70
2018-03-25T17:58:55.995Z,56.70
2018-03-25T18:01:24.418Z,54.07
2018-03-25T18:03:52.822Z,52.70
2018-03-25T18:06:21.275Z,57.37
2018-03-25T18:08:49.792Z,54.70
2018-03-25T18:11:18.200Z,55.20
2018-03-25T18:13:46.630Z,51.47
2018-03-25T18:16:15.147Z,54.23
2018-03-25T18:18:43.584Z,56.10
2018-03-25T18:21:12.050Z,49.50
2018-03-25T18:23:40.448Z,56.10
2018-03-25T18:26:08.941Z,60.20
2018-03-25T18:28:37.389Z,59.30
2018-03-25T18:31:05.873Z,58.33
2018-03-25T18:33:34.285Z,50.40
2018-03-25T18:36:02.687Z,58.57
2018-03-25T18:38:31.156Z,52.73
2018-03-25T18:40:59.539Z,53.67
2018-03-25T18:43:27.964Z,55.00
2018-03-25T18:45:56.400Z,51.80
2018-03-25T18:48:24.796Z,54.90
2018-03-25T18:50:53.285Z,60.20
2018-03-25T18:53:21.680Z,56.37
2018-03-25T18:55:50.097Z,56.90
2018-03-25T18:58:18.491Z,57.53
2018-03-25T19:00:46.929Z,66.03
2018-03-25T19:03:15.482Z,61.03
2018-03-25T19:05:43.871Z,60.72
2018-03-25T19:08:12.271Z,61.28
2018-03-25T19:10:40.717Z,59.38
2018-03-25T19:13:09.119Z,63.00
2018-03-25T19:15:37.699Z,51.92
2018-03-25T19:18:06.086Z,57.97
2018-03-25T19:20:34.493Z,65.55
2018-03-25T19:23:02.880Z,59.63
2018-03-25T19:25:31.325Z,71.53
2018-03-25T19:27:59.769Z,61.88
2018-03-25T19:30:28.160Z,51.88
2018-03-25T19:32:56.651Z,58.03
2018-03-25T19:35:25.033Z,62.93
2018-03-25T19:37:53.472Z,57.22
2018-03-25T19:40:21.858Z,69.05
2018-03-25T19:42:50.244Z,61.65
2018-03-25T19:45:18.735Z,60.00
2018-03-25T19:47:47.135Z,58.10
2018-03-25T19:50:15.547Z,58.25
2018-03-25T19:52:43.960Z,59.80
2018-03-25T19:55:12.379Z,64.57
2018-03-25T19:57:40.951Z,62.88
2018-03-25T20:00:09.350Z,67.37
2018-03-25T20:02:37.753Z,60.67
2018-03-25T20:05:06.125Z,66.87
2018-03-25T20:07:34.518Z,62.95
2018-03-25T20:10:02.934Z,65.28
2018-03-25T20:12:31.295Z,69.40
2018-03-25T20:14:59.702Z,64.78
2018-03-25T20:17:28.198Z,70.28
2018-03-25T20:19:56.605Z,70.87
2018-03-25T20:22:24.984Z,67.57
2018-03-25T20:24:53.473Z,63.50
2018-03-25T20:27:21.869Z,72.78
2018-03-25T20:29:50.236Z,66.85
2018-03-25T20:32:18.612Z,72.82
2018-03-25T20:34:47.019Z,78.03
2018-03-25T20:37:15.379Z,67.62
2018-03-25T20:39:43.770Z,72.55
2018-03-25T20:42:12.188Z,69.70
2018-03-25T20:44:40.688Z,74.60
2018-03-25T20:47:09.075Z,71.43
2018-03-25T20:49:37.457Z,75.22
2018-03-25T20:52:05.911Z,79.68
2018-03-25T20:54:34.433Z,73.53
2018-03-25T20:57:02.803Z,77.20
2018-03-25T20:59:31.210Z,77.57
2018-03-25T21:01:59.584Z,74.47
2018-03-25T21:04:27.975Z,73.07
2018-03-25T21:06:56.454Z,69.30
2018-03-25T21:09:24.844Z,71.07
2018-03-25T21:11:53.314Z,80.22
2018-03-25T21:14:21.691Z,81.87
2018-03-25T21:16:50.094Z,86.65
2018-03-25T21:19:18.453Z,72.45
2018-03-25T21:21:46.829Z,76.82
2018-03-25T21:24:15.232Z,81.32
2018-03-25T21:26:43.642Z,75.35
2018-03-25T21:29:12.079Z,76.45
2018-03-25T21:31:40.609Z,70.07
2018-03-25T21:34:08.985Z,66.93
2018-03-25T21:36:37.368Z,73.40
2018-03-25T21:39:05.769Z,64.43
2018-03-25T21:41:34.138Z,74.53
2018-03-25T21:44:02.514Z,74.82
2018-03-25T21:46:30.881Z,84.72
2018-03-25T21:48:59.412Z,81.30
2018-03-25T21:51:27.776Z,80.75
2018-03-25T21:53:56.142Z,69.45
2018-03-25T21:56:24.535Z,73.07
2018-03-25T21:58:52.900Z,73.65
2018-03-25T22:01:21.289Z,70.60
2018-03-25T22:03:49.688Z,76.62
2018-03-25T22:06:18.212Z,66.32
2018-03-25T22:08:46.629Z,72.30
2018-03-25T22:11:15.012Z,73.37
2018-03-25T22:13:43.388Z,62.10
2018-03-25T22:16:11.751Z,70.30
2018-03-25T22:18:51.843Z,82.10
2018-03-25T22:21:20.232Z,86.57
2018-03-25T22:23:48.788Z,84.53
2018-03-25T22:26:17.156Z,75.97
2018-03-25T22:28:45.533Z,76.90
2018-03-25T22:31:14.118Z,78.93
2018-03-25T22:33:42.639Z,79.97
2018-03-25T22:36:11.159Z,80.90
2018-03-25T22:38:39.583Z,86.50
2018-03-25T22:41:07.964Z,83.47
2018-03-25T22:43:36.333Z,77.85
2018-03-25T22:46:05.703Z,72.65
2018-03-25T22:48:34.449Z,88.07
2018-03-25T22:51:02.871Z,76.70
2018-03-25T22:53:31.344Z,79.30
2018-03-25T22:55:59.788Z,73.72
2018-03-25T22:58:28.194Z,84.05
2018-03-25T23:00:56.605Z,80.97
2018-03-25T23:03:24.975Z,92.25
2018-03-25T23:05:53.365Z,75.90
2018-03-25T23:08:21.789Z,73.35
2018-03-25T23:10:50.200Z,85.05
2018-03-25T23:13:18.572Z,82.45
2018-03-25T23:15:46.946Z,83.07
2018-03-25T23:18:15.347Z,87.28
2018-03-25T23:20:43.722Z,87.32
2018-03-25T23:23:12.308Z,85.68
2018-03-25T23:25:40.688Z,79.60
2018-03-25T23:28:09.075Z,77.35
2018-03-25T23:30:37.450Z,83.22
2018-03-25T23:33:05.829Z,85.82
2018-03-25T23:35:34.244Z,85.53
2018-03-25T23:38:02.627Z,79.28
2018-03-25T23:40:31.044Z,82.70
2018-03-25T23:42:59.436Z,75.87
2018-03-25T23:45:27.807Z,79.37
2018-03-25T23:47:56.181Z,92.30
2018-03-25T23:50:24.620Z,89.35
2018-03-25T23:52:53.059Z,92.45
2018-03-25T23:55:21.462Z,93.47
2018-03-25T23:57:49.828Z,79.03
